createdAt,value
2022-10-28T00:00:11.409Z,98612.25
2022-10-28T00:02:40.864Z,98613.59
2022-10-28T00:05:07.956Z,98611.41
2022-10-28T00:07:34.622Z,98613.59
2022-10-28T00:10:01.223Z,98614.91
2022-10-28T00:12:28.014Z,98612.00
2022-10-28T00:14:54.637Z,98607.19
2022-10-28T00:17:21.331Z,98612.72
2022-10-28T00:19:47.961Z,98608.50
2022-10-28T00:22:14.765Z,98600.81
2022-10-28T00:24:41.522Z,98609.72
2022-10-28T00:27:08.100Z,98599.94
2022-10-28T00:29:34.746Z,98601.41
2022-10-28T00:32:01.313Z,98595.13
2022-10-28T00:34:27.934Z,98597.91
2022-10-28T00:36:54.757Z,98597.91
2022-10-28T00:39:24.063Z,98592.34
2022-10-28T00:41:56.230Z,98584.63
2022-10-28T00:44:53.331Z,98592.09
2022-10-28T00:47:52.635Z,98591.97
2022-10-28T00:50:35.391Z,98589.78
2022-10-28T00:53:07.546Z,98603.56
2022-10-28T00:55:35.668Z,98610.44
2022-10-28T00:58:04.143Z,98598.50
2022-10-28T01:00:30.859Z,98605.38
2022-10-28T01:02:57.571Z,98602.59
2022-10-28T01:05:28.108Z,98597.66
2022-10-28T01:08:01.483Z,98602.47
2022-10-28T01:11:04.497Z,98598.25
2022-10-28T01:13:47.958Z,98588.47
2022-10-28T01:16:57.796Z,98598.16
2022-10-28T01:20:13.210Z,98603.56
2022-10-28T01:23:21.461Z,98593.81
2022-10-28T01:26:40.331Z,98586.06
2022-10-28T01:29:56.545Z,98592.25
2022-10-28T01:33:12.736Z,98596.34
2022-10-28T01:36:03.617Z,98599.72
2022-10-28T01:38:44.817Z,98599.00
2022-10-28T01:41:34.903Z,98603.09
2022-10-28T01:44:18.986Z,98594.78
2022-10-28T01:47:13.394Z,98587.78
2022-10-28T01:50:21.559Z,98591.16
2022-10-28T01:52:50.383Z,98595.28
2022-10-28T01:55:28.418Z,98600.81
2022-10-28T01:57:59.318Z,98595.84
2022-10-28T02:00:26.510Z,98592.38
2022-10-28T02:02:55.649Z,98596.47
2022-10-28T02:05:46.623Z,98592.25
2022-10-28T02:08:48.557Z,98597.81
2022-10-28T02:12:04.817Z,98586.56
2022-10-28T02:14:54.516Z,98592.03
2022-10-28T02:18:07.186Z,98599.59
2022-10-28T02:21:03.674Z,98591.16
2022-10-28T02:23:52.742Z,98587.69
2022-10-28T02:26:34.782Z,98583.44
2022-10-28T02:29:30.080Z,98577.88
2022-10-28T02:32:03.548Z,98586.81
2022-10-28T02:34:35.681Z,98587.53
2022-10-28T02:37:08.091Z,98574.28
2022-10-28T02:39:42.284Z,98569.44
2022-10-28T02:42:40.734Z,98568.97
2022-10-28T02:45:16.544Z,98573.31
2022-10-28T02:47:49.566Z,98574.97
2022-10-28T02:50:21.013Z,98566.88
2022-10-28T02:52:51.681Z,98559.63
2022-10-28T02:55:20.623Z,98562.06
2022-10-28T02:57:49.285Z,98563.09
2022-10-28T03:00:20.230Z,98568.16
2022-10-28T03:02:47.174Z,98559.25
2022-10-28T03:05:14.476Z,98567.69
2022-10-28T03:07:41.584Z,98575.44
2022-10-28T03:10:09.333Z,98576.16
2022-10-28T03:12:36.103Z,98573.38
2022-10-28T03:15:03.800Z,98569.88
2022-10-28T03:17:30.611Z,98567.09
2022-10-28T03:19:57.227Z,98575.44
2022-10-28T03:22:23.804Z,98583.66
2022-10-28T03:24:50.399Z,98578.09
2022-10-28T03:27:17.061Z,98573.25
2022-10-28T03:29:45.890Z,98575.31
2022-10-28T03:32:13.167Z,98578.81
2022-10-28T03:34:40.008Z,98580.88
2022-10-28T03:37:07.081Z,98575.31
2022-10-28T03:39:33.683Z,98579.44
2022-10-28T03:42:00.487Z,98564.06
2022-10-28T03:44:27.199Z,98559.25
2022-10-28T03:46:53.785Z,98566.84
2022-10-28T03:49:20.570Z,98564.06
2022-10-28T03:51:47.184Z,98569.63
2022-10-28T03:54:14.012Z,98576.66
2022-10-28T03:56:40.655Z,98571.31
2022-10-28T03:59:09.687Z,98577.25
2022-10-28T04:01:36.622Z,98589.28
2022-10-28T04:04:03.454Z,98603.53
2022-10-28T04:06:30.620Z,98601.00
2022-10-28T04:08:57.410Z,98603.38
2022-10-28T04:11:24.057Z,98599.38
2022-10-28T04:13:50.862Z,98605.28
2022-10-28T04:16:17.446Z,98597.19
2022-10-28T04:18:44.067Z,98595.97
2022-10-28T04:21:10.704Z,98587.84
2022-10-28T04:23:37.298Z,98587.34
2022-10-28T04:26:04.149Z,98596.53
2022-10-28T04:28:30.799Z,98581.28
2022-10-28T04:30:57.585Z,98588.28
2022-10-28T04:33:24.211Z,98586.22
2022-10-28T04:35:50.815Z,98596.75
2022-10-28T04:38:17.630Z,98598.81
2022-10-28T04:40:48.028Z,98593.97
2022-10-28T04:43:15.398Z,98597.47
2022-10-28T04:45:42.113Z,98598.19
2022-10-28T04:48:10.601Z,98597.59
2022-10-28T04:50:37.446Z,98599.03
2022-10-28T04:53:04.011Z,98592.03
2022-10-28T04:55:30.915Z,98594.19
2022-10-28T04:57:59.818Z,98592.13
2022-10-28T05:00:28.365Z,98599.13
2022-10-28T05:02:55.294Z,98597.09
2022-10-28T05:05:22.902Z,98596.34
2022-10-28T05:07:49.489Z,98596.25
2022-10-28T05:10:18.010Z,98592.03
2022-10-28T05:12:45.872Z,98593.97
2022-10-28T05:15:13.553Z,98598.81
2022-10-28T05:17:41.365Z,98601.59
2022-10-28T05:20:09.369Z,98594.56
2022-10-28T05:22:36.206Z,98589.75
2022-10-28T05:25:03.782Z,98582.00
2022-10-28T05:27:30.622Z,98583.34
2022-10-28T05:29:57.165Z,98582.63
2022-10-28T05:32:24.147Z,98586.13
2022-10-28T05:34:50.727Z,98585.41
2022-10-28T05:37:17.304Z,98595.06
2022-10-28T05:39:44.118Z,98588.78
2022-10-28T05:42:10.704Z,98604.03
2022-10-28T05:44:37.291Z,98599.91
2022-10-28T05:47:03.944Z,98599.31
2022-10-28T05:49:30.533Z,98593.25
2022-10-28T05:51:57.330Z,98599.03
2022-10-28T05:54:24.074Z,98599.13
2022-10-28T05:56:50.835Z,98595.84
2022-10-28T05:59:17.475Z,98593.91
2022-10-28T06:01:44.190Z,98598.75
2022-10-28T06:04:11.150Z,98589.69
2022-10-28T06:06:37.827Z,98593.31
2022-10-28T06:09:04.472Z,98602.97
2022-10-28T06:11:29.586Z,98602.88
2022-10-28T06:13:56.211Z,98597.09
2022-10-28T06:16:22.872Z,98603.25
2022-10-28T06:18:49.506Z,98607.38
2022-10-28T06:21:16.382Z,98608.09
2022-10-28T06:23:43.013Z,98606.66
2022-10-28T06:26:09.636Z,98603.16
2022-10-28T06:28:36.430Z,98607.25
2022-10-28T06:31:04.646Z,98610.66
2022-10-28T06:33:31.843Z,98616.09
2022-10-28T06:35:59.511Z,98612.00
2022-10-28T06:38:27.564Z,98618.38
2022-10-28T06:40:56.271Z,98620.66
2022-10-28T06:43:22.845Z,98623.06
2022-10-28T06:45:53.831Z,98628.13
2022-10-28T06:48:22.345Z,98626.91
2022-10-28T06:50:49.423Z,98621.44
2022-10-28T06:53:16.193Z,98625.06
2022-10-28T06:55:42.780Z,98633.66
2022-10-28T06:58:10.060Z,98637.28
2022-10-28T07:00:36.707Z,98637.28
2022-10-28T07:03:03.491Z,98652.63
2022-10-28T07:05:30.144Z,98645.00
2022-10-28T07:07:56.959Z,98649.13
2022-10-28T07:10:23.944Z,98650.47
2022-10-28T07:12:52.991Z,98653.97
2022-10-28T07:15:20.052Z,98651.19
2022-10-28T07:17:52.828Z,98658.06
2022-10-28T07:20:19.407Z,98658.06
2022-10-28T07:22:46.235Z,98656.03
2022-10-28T07:25:12.815Z,98658.06
2022-10-28T07:27:39.404Z,98654.47
2022-10-28T07:30:06.853Z,98659.31
2022-10-28T07:32:33.622Z,98653.00
2022-10-28T07:35:00.208Z,98650.09
2022-10-28T07:37:26.806Z,98661.22
2022-10-28T07:39:53.388Z,98653.63
2022-10-28T07:42:20.144Z,98667.53
2022-10-28T07:44:46.745Z,98661.81
2022-10-28T07:47:14.613Z,98655.66
2022-10-28T07:49:41.206Z,98655.66
2022-10-28T07:52:07.808Z,98663.28
2022-10-28T07:54:34.574Z,98657.59
2022-10-28T07:57:01.215Z,98654.09
2022-10-28T07:59:28.101Z,98655.91
2022-10-28T08:01:55.224Z,98646.69
2022-10-28T08:04:21.995Z,98656.69
2022-10-28T08:06:48.708Z,98655.00
2022-10-28T08:09:16.361Z,98655.47
2022-10-28T08:11:43.148Z,98651.19
2022-10-28T08:14:09.744Z,98658.41
2022-10-28T08:16:36.322Z,98662.47
2022-10-28T08:19:07.476Z,98659.44
2022-10-28T08:21:34.551Z,98656.16
2022-10-28T08:24:01.354Z,98653.63
2022-10-28T08:26:27.956Z,98654.47
2022-10-28T08:28:54.557Z,98655.91
2022-10-28T08:31:21.316Z,98651.06
2022-10-28T08:33:47.896Z,98652.50
2022-10-28T08:36:16.823Z,98650.56
2022-10-28T08:38:45.671Z,98656.84
2022-10-28T08:41:52.570Z,98660.47
2022-10-28T08:45:04.247Z,98655.75
2022-10-28T08:47:58.676Z,98652.34
2022-10-28T08:50:31.742Z,98656.56
2022-10-28T08:53:16.010Z,98653.78
2022-10-28T08:55:47.147Z,98653.78
2022-10-28T08:58:35.671Z,98653.06
2022-10-28T09:01:09.104Z,98648.94
2022-10-28T09:03:43.191Z,98657.19
2022-10-28T09:06:10.927Z,98655.84
2022-10-28T09:08:48.390Z,98662.88
2022-10-28T09:12:12.146Z,98664.19
2022-10-28T09:15:08.976Z,98660.19
2022-10-28T09:17:54.014Z,98666.47
2022-10-28T09:20:42.036Z,98668.53
2022-10-28T09:23:37.400Z,98665.88
2022-10-28T09:26:32.052Z,98676.38
2022-10-28T09:29:34.744Z,98675.03
2022-10-28T09:32:43.466Z,98680.00
2022-10-28T09:35:13.967Z,98682.78
2022-10-28T09:37:47.806Z,98679.28
2022-10-28T09:40:22.071Z,98690.41
2022-10-28T09:43:30.060Z,98686.78
2022-10-28T09:46:20.791Z,98683.28
2022-10-28T09:48:53.201Z,98679.78
2022-10-28T09:51:58.448Z,98689.44
2022-10-28T09:54:43.181Z,98686.66
2022-10-28T09:57:11.536Z,98682.44
2022-10-28T09:59:40.688Z,98679.66
2022-10-28T10:02:26.214Z,98681.22
2022-10-28T10:04:54.710Z,98682.16
2022-10-28T10:07:43.465Z,98685.88
2022-10-28T10:10:34.553Z,98681.97
2022-10-28T10:13:04.792Z,98677.97
2022-10-28T10:15:36.766Z,98671.19
2022-10-28T10:18:06.400Z,98673.34
2022-10-28T10:20:55.773Z,98674.78
2022-10-28T10:23:34.273Z,98679.75
2022-10-28T10:26:12.016Z,98672.84
2022-10-28T10:28:44.354Z,98667.28
2022-10-28T10:31:22.672Z,98675.00
2022-10-28T10:33:51.899Z,98670.78
2022-10-28T10:36:23.796Z,98672.22
2022-10-28T10:38:56.109Z,98664.00
2022-10-28T10:41:36.256Z,98669.56
2022-10-28T10:44:31.296Z,98663.88
2022-10-28T10:47:18.666Z,98668.00
2022-10-28T10:49:45.248Z,98660.28
2022-10-28T10:52:20.864Z,98665.13
2022-10-28T10:55:19.169Z,98658.09
2022-10-28T10:57:48.133Z,98653.16
2022-10-28T11:00:20.970Z,98657.38
2022-10-28T11:02:50.963Z,98651.81
2022-10-28T11:05:25.783Z,98649.03
2022-10-28T11:07:58.583Z,98649.66
2022-10-28T11:10:30.869Z,98650.25
2022-10-28T11:12:58.540Z,98648.81
2022-10-28T11:15:28.413Z,98643.25
2022-10-28T11:18:20.771Z,98647.47
2022-10-28T11:21:07.816Z,98641.38
2022-10-28T11:24:07.171Z,98632.53
2022-10-28T11:26:40.880Z,98625.84
2022-10-28T11:29:11.611Z,98630.78
2022-10-28T11:32:33.956Z,98620.50
2022-10-28T11:35:46.854Z,98619.16
2022-10-28T11:38:52.457Z,98621.09
2022-10-28T11:42:00.778Z,98621.72
2022-10-28T11:45:03.281Z,98609.03
2022-10-28T11:48:07.007Z,98606.16
2022-10-28T11:51:24.250Z,98594.91
2022-10-28T11:54:43.367Z,98592.75
2022-10-28T11:57:45.880Z,98587.06
2022-10-28T12:00:30.879Z,98584.91
2022-10-28T12:03:40.692Z,98587.69
2022-10-28T12:06:18.665Z,98593.88
2022-10-28T12:09:42.428Z,98583.38
2022-10-28T12:12:34.378Z,98586.03
2022-10-28T12:15:45.502Z,98574.06
2022-10-28T12:18:53.885Z,98576.25
2022-10-28T12:21:37.897Z,98574.06
2022-10-28T12:24:10.950Z,98565.72
2022-10-28T12:26:43.824Z,98563.56
2022-10-28T12:29:21.624Z,98557.28
2022-10-28T12:31:54.058Z,98560.66
2022-10-28T12:34:29.157Z,98564.06
2022-10-28T12:37:13.512Z,98560.56
2022-10-28T12:39:47.797Z,98561.78
2022-10-28T12:42:43.916Z,98551.28
2022-10-28T12:45:15.418Z,98563.00
2022-10-28T12:48:17.084Z,98548.38
2022-10-28T12:51:01.085Z,98546.22
2022-10-28T12:53:44.777Z,98542.00
2022-10-28T12:56:27.139Z,98541.91
2022-10-28T12:59:13.838Z,98538.28
2022-10-28T13:01:43.925Z,98529.84
2022-10-28T13:04:12.864Z,98532.63
2022-10-28T13:07:10.729Z,98526.31
2022-10-28T13:10:19.387Z,98527.66
2022-10-28T13:13:18.405Z,98536.63
2022-10-28T13:16:21.230Z,98528.16
2022-10-28T13:19:00.248Z,98532.28
2022-10-28T13:22:09.753Z,98533.63
2022-10-28T13:24:47.825Z,98532.88
2022-10-28T13:27:15.524Z,98527.94
2022-10-28T13:29:44.080Z,98523.75
2022-10-28T13:32:46.280Z,98521.66
2022-10-28T13:35:25.337Z,98527.84
2022-10-28T13:37:54.713Z,98520.84
2022-10-28T13:41:02.076Z,98524.81
2022-10-28T13:50:14.577Z,98515.66
2022-10-28T13:52:45.754Z,98512.75
2022-10-28T13:56:06.753Z,98518.31
2022-10-28T13:58:34.283Z,98516.88
2022-10-28T14:02:02.210Z,98514.81
2022-10-28T14:04:42.097Z,98518.22
2022-10-28T14:07:29.162Z,98511.91
2022-10-28T14:09:59.927Z,98512.66
2022-10-28T14:12:32.505Z,98513.97
2022-10-28T14:15:19.256Z,98517.38
2022-10-28T14:17:55.880Z,98513.88
2022-10-28T14:20:36.667Z,98514.59
2022-10-28T14:23:49.145Z,98518.72
2022-10-28T14:26:15.784Z,98521.50
2022-10-28T14:28:52.538Z,98511.72
2022-10-28T14:31:21.018Z,98520.06
2022-10-28T14:34:34.208Z,98510.91
2022-10-28T14:37:22.268Z,98520.69
2022-10-28T14:40:19.630Z,98520.06
2022-10-28T14:43:01.518Z,98518.00
2022-10-28T14:45:57.830Z,98521.09
2022-10-28T14:48:44.296Z,98524.81
2022-10-28T14:51:15.869Z,98520.25
2022-10-28T14:53:44.221Z,98530.22
2022-10-28T14:56:31.239Z,98522.09
2022-10-28T14:59:02.930Z,98523.03
2022-10-28T15:01:52.488Z,98519.72
2022-10-28T15:04:20.775Z,98517.19
2022-10-28T15:06:51.083Z,98515.22
2022-10-28T15:09:25.184Z,98514.59
2022-10-28T15:12:13.977Z,98513.25
2022-10-28T15:14:45.076Z,98506.97
2022-10-28T15:17:28.806Z,98511.19
2022-10-28T15:19:58.449Z,98500.78
2022-10-28T15:22:33.291Z,98502.97
2022-10-28T15:25:12.518Z,98499.44
2022-10-28T15:27:40.997Z,98495.34
2022-10-28T15:30:23.354Z,98489.06
2022-10-28T15:32:50.720Z,98485.63
2022-10-28T15:35:38.238Z,98491.94
2022-10-28T15:38:41.246Z,98495.44
2022-10-28T15:41:46.292Z,98496.88
2022-10-28T15:44:30.642Z,98492.03
2022-10-28T15:46:58.476Z,98487.91
2022-10-28T15:49:37.197Z,98494.91
2022-10-28T15:52:32.233Z,98498.41
2022-10-28T15:55:00.928Z,98493.59
2022-10-28T15:57:30.358Z,98497.09
2022-10-28T16:00:25.700Z,98494.91
2022-10-28T16:02:58.267Z,98501.09
2022-10-28T16:05:58.614Z,98503.78
2022-10-28T16:08:29.075Z,98516.38
2022-10-28T16:11:04.832Z,98519.16
2022-10-28T16:13:38.232Z,98515.03
2022-10-28T16:16:10.152Z,98515.09
2022-10-28T16:18:44.408Z,98508.31
2022-10-28T16:21:23.676Z,98518.84
2022-10-28T16:23:56.381Z,98507.81
2022-10-28T16:26:23.499Z,98514.91
2022-10-28T16:28:50.459Z,98506.06
2022-10-28T16:31:19.525Z,98499.13
2022-10-28T16:33:46.327Z,98497.81
2022-10-28T16:36:13.381Z,98497.19
2022-10-28T16:38:40.465Z,98495.84
2022-10-28T16:41:16.508Z,98493.81
2022-10-28T16:43:43.342Z,98501.53
2022-10-28T16:46:12.526Z,98501.53
2022-10-28T16:48:39.720Z,98507.81
2022-10-28T16:51:12.553Z,98513.38
2022-10-28T16:53:39.351Z,98507.09
2022-10-28T16:56:09.861Z,98505.03
2022-10-28T16:58:42.339Z,98504.38
2022-10-28T17:01:13.482Z,98509.97
2022-10-28T17:03:40.116Z,98507.91
2022-10-28T17:06:07.137Z,98511.41
2022-10-28T17:09:01.130Z,98508.63
2022-10-28T17:11:20.400Z,98500.88
2022-10-28T17:13:48.018Z,98493.88
2022-10-28T17:16:14.625Z,98502.25
2022-10-28T17:18:42.513Z,98509.88
2022-10-28T17:21:09.523Z,98517.50
2022-10-28T17:23:36.284Z,98516.66
2022-10-28T17:26:03.593Z,98519.38
2022-10-28T17:28:30.448Z,98510.91
2022-10-28T17:31:08.401Z,98521.81
2022-10-28T17:33:35.112Z,98520.41
2022-10-28T17:36:03.412Z,98522.34
2022-10-28T17:38:30.195Z,98525.72
2022-10-28T17:40:57.707Z,98531.81
2022-10-28T17:43:24.585Z,98522.03
2022-10-28T17:45:51.288Z,98517.09
2022-10-28T17:48:18.224Z,98514.31
2022-10-28T17:50:45.235Z,98513.47
2022-10-28T17:53:11.900Z,98514.69
2022-10-28T17:55:38.639Z,98508.41
2022-10-28T17:58:05.252Z,98502.72
2022-10-28T18:00:32.025Z,98499.94
2022-10-28T18:02:58.972Z,98497.72
2022-10-28T18:05:25.623Z,98505.31
2022-10-28T18:07:55.197Z,98502.44
2022-10-28T18:10:21.991Z,98505.09
2022-10-28T18:12:51.283Z,98507.06
2022-10-28T18:15:18.064Z,98509.75
2022-10-28T18:17:49.213Z,98514.59
2022-10-28T18:20:16.093Z,98508.19
2022-10-28T18:22:42.682Z,98503.25
2022-10-28T18:25:09.457Z,98501.06
2022-10-28T18:27:37.030Z,98509.31
2022-10-28T18:30:04.121Z,98523.22
2022-10-28T18:32:30.721Z,98518.25
2022-10-28T18:34:57.353Z,98524.44
2022-10-28T18:37:24.192Z,98520.97
2022-10-28T18:39:50.953Z,98518.06
2022-10-28T18:42:21.980Z,98512.50
2022-10-28T18:44:49.047Z,98514.41
2022-10-28T18:47:15.623Z,98509.47
2022-10-28T18:49:45.416Z,98512.13
2022-10-28T18:52:12.299Z,98511.41
2022-10-28T18:54:38.880Z,98515.53
2022-10-28T18:57:05.473Z,98520.38
2022-10-28T18:59:32.118Z,98508.41
2022-10-28T19:01:59.019Z,98504.84
2022-10-28T19:04:25.745Z,98506.88
2022-10-28T19:06:52.392Z,98501.09
2022-10-28T19:09:18.991Z,98505.09
2022-10-28T19:11:45.560Z,98499.44
2022-10-28T19:14:12.367Z,98499.31
2022-10-28T19:16:39.150Z,98500.66
2022-10-28T19:19:06.059Z,98509.63
2022-10-28T19:21:33.107Z,98508.78
2022-10-28T19:23:59.753Z,98503.09
2022-10-28T19:26:26.669Z,98501.66
2022-10-28T19:28:53.819Z,98501.53
2022-10-28T19:31:23.473Z,98502.16
2022-10-28T19:33:52.129Z,98507.59
2022-10-28T19:36:24.671Z,98505.44
2022-10-28T19:38:53.725Z,98509.56
2022-10-28T19:41:23.339Z,98511.63
2022-10-28T19:43:57.744Z,98507.41
2022-10-28T19:46:26.102Z,98508.72
2022-10-28T19:48:54.551Z,98509.34
2022-10-28T19:51:24.372Z,98509.94
2022-10-28T19:53:52.890Z,98521.06
2022-10-28T19:56:20.528Z,98518.78
2022-10-28T19:58:51.348Z,98518.78
2022-10-28T20:01:18.468Z,98515.91
2022-10-28T20:03:49.148Z,98523.53
2022-10-28T20:06:17.556Z,98522.78
2022-10-28T20:08:46.570Z,98517.84
2022-10-28T20:11:24.702Z,98521.34
2022-10-28T20:13:58.112Z,98524.03
2022-10-28T20:16:25.576Z,98528.84
2022-10-28T20:18:54.041Z,98527.53
2022-10-28T20:21:22.055Z,98524.13
2022-10-28T20:26:18.417Z,98520.00
2022-10-28T20:28:45.252Z,98520.75
2022-10-28T20:31:14.269Z,98529.31
2022-10-28T20:33:43.030Z,98532.41
2022-10-28T20:36:36.467Z,98526.47
2022-10-28T20:39:17.135Z,98525.84
2022-10-28T20:41:45.685Z,98528.84
2022-10-28T20:44:12.894Z,98525.47
2022-10-28T20:46:40.293Z,98524.13
2022-10-28T20:49:08.743Z,98524.97
2022-10-28T20:51:36.104Z,98523.63
2022-10-28T20:54:03.101Z,98529.91
2022-10-28T20:56:31.926Z,98532.69
2022-10-28T20:58:59.480Z,98527.13
2022-10-28T21:01:45.583Z,98525.06
2022-10-28T21:04:12.300Z,98518.19
2022-10-28T21:06:39.499Z,98528.59
2022-10-28T21:09:06.950Z,98525.81
2022-10-28T21:11:33.789Z,98522.28
2022-10-28T21:14:01.575Z,98527.84
2022-10-28T21:16:29.260Z,98527.25
2022-10-28T21:18:55.880Z,98520.34
2022-10-28T21:21:24.134Z,98514.69
2022-10-28T21:23:50.975Z,98528.69
2022-10-28T21:26:17.796Z,98538.38
2022-10-28T21:28:45.081Z,98535.59
2022-10-28T21:31:14.391Z,98541.16
2022-10-28T21:33:42.377Z,98553.69
2022-10-28T21:36:20.601Z,98546.09
2022-10-28T21:38:47.397Z,98534.97
2022-10-28T21:41:19.489Z,98535.69
2022-10-28T21:43:48.534Z,98533.53
2022-10-28T21:46:16.085Z,98535.09
2022-10-28T21:48:42.730Z,98531.59
2022-10-28T21:51:14.625Z,98532.31
2022-10-28T21:53:41.697Z,98519.13
2022-10-28T21:56:19.300Z,98526.13
2022-10-28T21:58:48.039Z,98526.84
2022-10-28T22:01:17.849Z,98524.81
2022-10-28T22:03:44.680Z,98526.84
2022-10-28T22:06:11.564Z,98520.56
2022-10-28T22:08:38.157Z,98522.63
2022-10-28T22:11:07.497Z,98531.59
2022-10-28T22:13:35.160Z,98519.75
2022-10-28T22:16:04.560Z,98520.34
2022-10-28T22:18:33.632Z,98522.41
2022-10-28T22:21:05.567Z,98525.31
2022-10-28T22:23:32.296Z,98526.63
2022-10-28T22:26:03.183Z,98518.91
2022-10-28T22:28:29.829Z,98534.88
2022-10-28T22:31:04.783Z,98520.84
2022-10-28T22:33:31.637Z,98518.78
2022-10-28T22:36:02.742Z,98509.00
2022-10-28T22:38:29.755Z,98521.47
2022-10-28T22:41:16.296Z,98520.00
2022-10-28T22:43:45.884Z,98515.78
2022-10-28T22:46:14.933Z,98522.69
2022-10-28T22:48:41.675Z,98528.25
2022-10-28T22:51:09.858Z,98524.03
2022-10-28T22:53:38.073Z,98514.84
2022-10-28T22:56:05.962Z,98517.63
2022-10-28T22:58:32.785Z,98516.91
2022-10-28T23:01:26.534Z,98511.94
2022-10-28T23:03:53.728Z,98507.00
2022-10-28T23:06:23.052Z,98512.56
2022-10-28T23:08:50.243Z,98513.16
2022-10-28T23:11:18.447Z,98522.84
2022-10-28T23:13:45.544Z,98506.78
2022-10-28T23:16:14.779Z,98513.69
2022-10-28T23:18:41.769Z,98505.97
2022-10-28T23:21:19.484Z,98512.94
2022-10-28T23:23:49.807Z,98522.63
2022-10-28T23:26:19.751Z,98526.03
2022-10-28T23:28:50.355Z,98521.78
2022-10-28T23:31:17.217Z,98514.19
2022-10-28T23:33:43.827Z,98507.19
2022-10-28T23:36:12.544Z,98511.28
2022-10-28T23:38:39.328Z,98506.34
2022-10-28T23:41:08.653Z,98499.34
2022-10-28T23:43:35.331Z,98510.44
2022-10-28T23:46:02.024Z,98509.00
2022-10-28T23:48:29.751Z,98499.97
2022-10-28T23:50:56.760Z,98498.53
2022-10-28T23:53:24.014Z,98492.22
2022-10-28T23:55:51.454Z,98503.97
2022-10-28T23:58:19.965Z,98503.25
